Time;durP1;ratioP1;P1;durP2;ratioP2;P2;SDS_P1;SDS_P2;PMS_P1;PMS_P2;Temp;Humidity;BMP_temperature;BMP_pressure;BME280_temperature;BME280_humidity;BME280_pressure;Samples;Min_cycle;Max_cycle;Signal;HPM_P1;HPM_P2
2022/03/18 00:02:04;;;;;;;15.82;6.93;;;11.10;99.90;;;;;;5055450;28;21282;-65
2022/03/18 00:04:31;;;;;;;11.90;10.73;;;11.10;99.90;;;;;;5055081;28;20232;-66
2022/03/18 00:06:58;;;;;;;13.73;11.60;;;11.10;99.90;;;;;;5054634;28;20247;-65
2022/03/18 00:09:26;;;;;;;8.93;8.05;;;11.10;99.90;;;;;;5055419;28;20217;-65
2022/03/18 00:11:54;;;;;;;10.25;7.85;;;11.00;99.90;;;;;;5054174;28;20235;-66
2022/03/18 00:14:21;;;;;;;7.78;6.97;;;11.10;99.90;;;;;;5053995;28;20221;-67
2022/03/18 00:16:48;;;;;;;9.60;6.95;;;11.10;99.90;;;;;;5053144;28;20236;-65
2022/03/18 00:19:15;;;;;;;10.10;7.43;;;11.10;99.90;;;;;;5054526;28;20217;-66
2022/03/18 00:21:42;;;;;;;10.55;7.50;;;11.10;99.90;;;;;;5044374;28;20230;-66
2022/03/18 00:24:10;;;;;;;8.25;6.68;;;11.10;99.90;;;;;;5052696;28;20221;-66
2022/03/18 00:26:37;;;;;;;11.88;7.15;;;11.10;99.90;;;;;;5053441;28;20221;-66
2022/03/18 00:29:05;;;;;;;9.10;5.55;;;11.00;99.90;;;;;;5053055;28;20216;-66
2022/03/18 00:31:32;;;;;;;6.72;5.40;;;11.10;99.90;;;;;;5045218;28;20225;-65
2022/03/18 00:33:59;;;;;;;9.50;5.97;;;11.00;99.90;;;;;;5054676;28;20217;-65
2022/03/18 00:36:25;;;;;;;10.45;6.50;;;11.00;99.90;;;;;;5054990;28;20279;-64
2022/03/18 00:38:53;;;;;;;12.13;6.32;;;11.10;99.90;;;;;;5054559;28;20619;-64
2022/03/18 00:41:20;;;;;;;8.90;6.35;;;11.10;99.90;;;;;;5054914;28;20619;-65
2022/03/18 00:43:47;;;;;;;14.15;7.22;;;11.10;99.90;;;;;;5054460;28;20426;-65
2022/03/18 00:46:15;;;;;;;9.65;6.15;;;11.10;99.90;;;;;;5041385;28;20797;-65
2022/03/18 00:54:10;;;;;;;8.75;5.90;;;11.10;99.90;;;;;;5054673;28;20224;-65
2022/03/18 00:56:37;;;;;;;8.50;5.75;;;11.00;99.90;;;;;;5054320;28;20236;-65
2022/03/18 00:59:04;;;;;;;10.25;7.38;;;11.00;99.90;;;;;;5054615;28;20225;-65
2022/03/18 01:01:34;;;;;;;6.82;5.60;;;11.10;99.90;;;;;;5053951;28;20229;-65
2022/03/18 01:04:01;;;;;;;10.50;6.35;;;11.00;99.90;;;;;;5054617;28;20228;-65
2022/03/18 01:06:28;;;;;;;5.78;5.28;;;11.10;99.90;;;;;;5053993;28;20236;-65
2022/03/18 01:08:54;;;;;;;7.30;4.78;;;11.00;99.90;;;;;;5054409;28;20225;-66
2022/03/18 01:11:21;;;;;;;8.25;5.53;;;10.90;99.90;;;;;;5054389;28;20237;-65
2022/03/18 01:13:48;;;;;;;7.35;4.95;;;11.00;99.90;;;;;;5053996;28;20228;-66
2022/03/18 01:16:15;;;;;;;11.90;6.70;;;11.00;99.90;;;;;;5054294;28;20682;-65
2022/03/18 01:18:44;;;;;;;5.35;3.65;;;11.00;99.90;;;;;;5053513;28;20225;-66
2022/03/18 01:21:10;;;;;;;7.82;5.63;;;10.90;99.90;;;;;;5054147;28;20225;-66
2022/03/18 01:23:38;;;;;;;6.93;4.60;;;10.90;99.90;;;;;;5053851;28;20296;-66
2022/03/18 01:26:05;;;;;;;7.95;4.97;;;11.00;99.90;;;;;;5054300;28;20229;-66
2022/03/18 01:28:32;;;;;;;6.20;4.30;;;10.90;99.90;;;;;;5053774;28;20232;-66
2022/03/18 01:30:59;;;;;;;7.00;5.25;;;10.90;99.90;;;;;;5054129;28;20237;-66
2022/03/18 01:33:26;;;;;;;7.60;5.60;;;10.90;99.90;;;;;;5054197;28;20213;-66
2022/03/18 01:35:54;;;;;;;12.05;6.00;;;10.90;99.90;;;;;;5053787;28;20986;-66
2022/03/18 01:38:20;;;;;;;7.35;4.68;;;10.90;99.90;;;;;;5053948;28;20225;-67
2022/03/18 01:40:47;;;;;;;8.80;4.93;;;10.90;99.90;;;;;;5053492;28;20229;-66
2022/03/18 01:43:14;;;;;;;9.35;5.30;;;10.90;99.90;;;;;;5053717;28;20221;-66
2022/03/18 01:45:41;;;;;;;6.60;4.55;;;11.00;99.90;;;;;;5053382;28;20221;-66
2022/03/18 01:48:08;;;;;;;5.65;4.43;;;11.00;99.90;;;;;;5053738;28;20703;-66
2022/03/18 01:50:35;;;;;;;9.40;6.15;;;11.00;99.90;;;;;;5053178;28;20316;-66
2022/03/18 01:53:03;;;;;;;9.23;4.88;;;10.90;99.90;;;;;;5053793;28;20221;-66
2022/03/18 01:55:31;;;;;;;13.40;5.10;;;11.00;99.90;;;;;;5053381;28;20554;-66
2022/03/18 01:57:58;;;;;;;14.52;8.45;;;10.90;99.90;;;;;;5053594;28;20221;-65
2022/03/18 02:00:26;;;;;;;8.50;6.15;;;11.00;99.90;;;;;;5053564;28;20236;-66
2022/03/18 02:02:52;;;;;;;7.85;4.68;;;10.90;99.90;;;;;;5053161;28;20224;-65
2022/03/18 02:05:19;;;;;;;9.88;5.53;;;10.90;99.90;;;;;;5053427;28;20562;-65
2022/03/18 02:07:47;;;;;;;8.05;4.88;;;10.80;99.90;;;;;;5053131;28;20231;-65
2022/03/18 02:10:15;;;;;;;9.15;4.13;;;10.80;99.90;;;;;;5053445;28;20233;-65
2022/03/18 02:12:42;;;;;;;11.18;4.97;;;10.80;99.90;;;;;;5052862;28;20543;-65
2022/03/18 02:15:10;;;;;;;4.82;4.35;;;10.80;99.90;;;;;;5053244;28;20225;-65
2022/03/18 02:17:38;;;;;;;8.02;5.65;;;10.90;99.90;;;;;;5052880;28;20233;-65
2022/03/18 02:20:06;;;;;;;11.70;7.05;;;10.80;99.90;;;;;;5053179;28;20282;-65
2022/03/18 02:22:38;;;;;;;8.75;5.05;;;10.90;99.90;;;;;;5052841;28;20682;-65
2022/03/18 02:25:09;;;;;;;8.35;5.20;;;10.90;99.90;;;;;;5053122;28;20221;-65
2022/03/18 02:27:37;;;;;;;8.57;4.30;;;10.90;99.90;;;;;;5052689;28;20228;-65
2022/03/18 02:30:04;;;;;;;8.77;4.03;;;10.90;99.90;;;;;;5053203;28;20243;-65
2022/03/18 02:32:32;;;;;;;10.18;5.25;;;10.80;99.90;;;;;;5052959;28;20228;-66
2022/03/18 02:35:01;;;;;;;7.95;4.68;;;10.80;99.90;;;;;;5052636;28;20663;-65
2022/03/18 02:37:28;;;;;;;11.68;5.55;;;10.80;99.90;;;;;;5053019;28;20256;-65
2022/03/18 02:39:56;;;;;;;6.82;4.05;;;10.80;99.90;;;;;;5052531;28;20229;-66
2022/03/18 02:42:23;;;;;;;6.53;4.90;;;10.90;99.90;;;;;;5052875;28;20229;-65
2022/03/18 02:44:50;;;;;;;7.85;3.50;;;10.90;99.90;;;;;;5052508;28;20221;-66
2022/03/18 02:47:17;;;;;;;12.57;4.50;;;10.90;99.90;;;;;;5052660;28;20221;-66
2022/03/18 02:49:43;;;;;;;8.73;4.35;;;10.90;99.90;;;;;;5052353;28;20232;-66
2022/03/18 02:52:10;;;;;;;7.35;4.35;;;10.90;99.90;;;;;;5052582;28;20275;-65
2022/03/18 02:54:38;;;;;;;11.93;5.15;;;10.90;99.90;;;;;;5052373;28;20229;-66
2022/03/18 02:57:07;;;;;;;12.57;5.95;;;10.90;99.90;;;;;;5052902;28;20291;-66
2022/03/18 02:59:34;;;;;;;11.95;4.70;;;10.90;99.90;;;;;;5052688;28;20231;-65
2022/03/18 03:02:01;;;;;;;9.05;3.70;;;10.90;99.90;;;;;;5052129;28;20221;-65
2022/03/18 03:04:27;;;;;;;12.13;3.92;;;10.90;99.90;;;;;;5052543;28;20225;-66
2022/03/18 03:09:38;;;;;;;9.57;4.32;;;10.90;99.90;;;;;;5051858;28;20224;-66
2022/03/18 03:12:07;;;;;;;9.93;4.13;;;10.90;99.90;;;;;;5052582;28;20225;-66
2022/03/18 03:14:36;;;;;;;7.85;4.30;;;10.80;99.90;;;;;;5052446;28;20232;-65
2022/03/18 03:17:03;;;;;;;14.25;4.35;;;10.80;99.90;;;;;;5052112;28;20926;-66
2022/03/18 03:19:31;;;;;;;7.82;3.92;;;10.80;99.90;;;;;;5052435;28;20219;-66
2022/03/18 03:21:57;;;;;;;7.75;4.72;;;10.80;99.90;;;;;;5051952;28;20714;-66
2022/03/18 03:24:24;;;;;;;9.23;6.03;;;10.80;99.90;;;;;;5052477;28;20216;-66
2022/03/18 03:26:51;;;;;;;9.75;4.85;;;10.80;99.80;;;;;;5051987;28;20236;-65
2022/03/18 03:29:19;;;;;;;7.65;3.72;;;10.80;99.90;;;;;;5052384;28;20339;-66
2022/03/18 03:31:46;;;;;;;8.30;3.85;;;10.80;99.70;;;;;;5051907;28;20236;-65
2022/03/18 03:34:14;;;;;;;7.05;3.72;;;10.80;99.80;;;;;;5052315;28;20221;-66
2022/03/18 03:36:41;;;;;;;4.60;3.65;;;10.80;99.80;;;;;;5051768;28;20225;-65
2022/03/18 03:39:08;;;;;;;7.15;3.35;;;10.80;99.90;;;;;;5051858;28;20232;-66
2022/03/18 03:41:35;;;;;;;12.73;3.75;;;10.80;99.70;;;;;;5052025;28;20691;-65
2022/03/18 03:44:02;;;;;;;3.85;3.50;;;10.80;99.70;;;;;;5051964;28;20726;-66
2022/03/18 03:46:33;;;;;;;9.63;3.25;;;10.80;99.60;;;;;;5052118;28;20545;-66
2022/03/18 03:48:59;;;;;;;9.30;3.38;;;10.80;99.90;;;;;;5051885;28;20236;-66
2022/03/18 03:51:26;;;;;;;10.18;4.15;;;10.80;99.30;;;;;;5052096;28;20225;-66
2022/03/18 03:53:53;;;;;;;12.18;4.03;;;10.80;99.40;;;;;;5051748;28;20233;-66
2022/03/18 03:56:20;;;;;;;10.10;4.03;;;10.80;99.40;;;;;;5052367;28;20251;-66
2022/03/18 03:58:47;;;;;;;4.30;3.28;;;10.70;99.30;;;;;;5051674;28;20231;-66
2022/03/18 04:01:14;;;;;;;11.88;3.50;;;10.70;99.20;;;;;;5052125;28;20240;-66
2022/03/18 04:03:43;;;;;;;7.60;4.00;;;10.70;99.20;;;;;;5052160;28;20213;-65
2022/03/18 04:06:10;;;;;;;7.82;3.50;;;10.70;99.20;;;;;;5051921;28;20663;-65
2022/03/18 04:08:37;;;;;;;6.40;3.67;;;10.70;99.10;;;;;;5051998;28;20660;-65
2022/03/18 04:11:03;;;;;;;7.68;4.15;;;10.70;99.20;;;;;;5051578;28;20243;-65
2022/03/18 04:13:30;;;;;;;10.90;3.60;;;10.70;99.20;;;;;;5052020;28;20221;-66
2022/03/18 04:15:57;;;;;;;8.13;3.40;;;10.70;99.20;;;;;;5051515;28;20225;-65
2022/03/18 04:18:24;;;;;;;8.10;3.83;;;10.70;99.10;;;;;;5052226;28;20221;-65
2022/03/18 04:20:52;;;;;;;9.43;4.55;;;10.70;99.10;;;;;;5052319;28;20224;-66
2022/03/18 04:23:19;;;;;;;5.78;3.40;;;10.70;98.90;;;;;;5055379;28;20690;-67
2022/03/18 04:25:46;;;;;;;7.10;3.72;;;10.70;98.80;;;;;;5055468;28;20231;-65
2022/03/18 04:28:13;;;;;;;16.00;5.22;;;10.70;98.80;;;;;;5055110;28;20293;-66
2022/03/18 04:30:40;;;;;;;13.55;7.10;;;10.70;98.80;;;;;;5055272;28;20598;-65
2022/03/18 04:33:07;;;;;;;9.32;3.50;;;10.70;98.60;;;;;;5054888;28;20574;-66
2022/03/18 04:35:33;;;;;;;17.05;6.72;;;10.60;98.60;;;;;;5055345;28;20223;-66
2022/03/18 04:38:02;;;;;;;9.07;4.07;;;10.60;98.50;;;;;;5054680;28;20236;-66
2022/03/18 04:40:29;;;;;;;10.50;4.07;;;10.60;98.50;;;;;;5055183;28;20225;-66
2022/03/18 04:42:56;;;;;;;8.77;4.65;;;10.60;98.40;;;;;;5054568;28;20220;-66
2022/03/18 04:45:23;;;;;;;9.73;4.32;;;10.50;98.50;;;;;;5054994;28;20221;-66
2022/03/18 04:47:50;;;;;;;6.57;3.78;;;10.50;98.50;;;;;;5054744;28;20636;-66
2022/03/18 04:50:17;;;;;;;13.82;4.00;;;10.50;98.60;;;;;;5054865;28;20221;-66
2022/03/18 04:52:44;;;;;;;10.50;3.50;;;10.50;98.50;;;;;;5054752;28;20316;-66
2022/03/18 04:55:12;;;;;;;8.85;4.60;;;10.50;98.60;;;;;;5053515;28;20247;-66
2022/03/18 04:57:39;;;;;;;7.88;4.85;;;10.50;98.60;;;;;;5053321;28;20240;-66
2022/03/18 05:00:08;;;;;;;8.35;4.15;;;10.40;98.60;;;;;;5053279;28;20562;-66
2022/03/18 05:02:35;;;;;;;8.30;4.18;;;10.40;98.60;;;;;;5054602;28;20292;-66
2022/03/18 05:05:02;;;;;;;14.57;5.50;;;10.40;98.60;;;;;;5054334;28;20232;-65
2022/03/18 05:07:29;;;;;;;8.55;3.80;;;10.40;98.60;;;;;;5054678;28;20256;-66
2022/03/18 05:09:56;;;;;;;9.45;4.57;;;10.30;98.50;;;;;;5054159;28;20311;-65
2022/03/18 05:12:26;;;;;;;8.80;3.67;;;10.30;98.60;;;;;;5054566;28;20221;-67
2022/03/18 05:14:53;;;;;;;11.43;4.60;;;10.20;98.60;;;;;;5054105;28;20221;-66
2022/03/18 05:17:20;;;;;;;12.73;4.78;;;10.20;98.60;;;;;;5054422;28;20674;-66
2022/03/18 05:19:47;;;;;;;11.15;4.50;;;10.20;98.50;;;;;;5054385;28;20243;-67
2022/03/18 05:22:14;;;;;;;8.02;3.13;;;10.10;98.40;;;;;;5053966;28;20565;-64
2022/03/18 05:24:41;;;;;;;8.13;4.18;;;10.10;98.50;;;;;;5054496;28;20734;-65
2022/03/18 05:27:08;;;;;;;9.40;4.95;;;10.10;98.50;;;;;;5053696;28;20239;-65
2022/03/18 05:29:36;;;;;;;9.18;4.78;;;10.00;98.40;;;;;;5054225;28;20274;-65
2022/03/18 05:32:04;;;;;;;10.98;4.70;;;9.90;98.90;;;;;;5053384;28;20233;-65
2022/03/18 05:34:32;;;;;;;8.70;4.97;;;9.90;98.90;;;;;;5054230;28;20231;-66
2022/03/18 05:36:59;;;;;;;11.93;5.15;;;9.90;98.90;;;;;;5053675;28;20560;-67
2022/03/18 05:39:26;;;;;;;13.68;4.60;;;9.90;98.90;;;;;;5054061;28;20296;-66
2022/03/18 05:41:53;;;;;;;7.68;4.18;;;9.80;98.80;;;;;;5053741;28;20233;-66
2022/03/18 05:44:20;;;;;;;10.05;4.63;;;9.90;98.80;;;;;;5054000;28;20217;-68
2022/03/18 05:46:48;;;;;;;7.90;3.85;;;9.90;98.80;;;;;;5053899;28;20735;-66
2022/03/18 05:49:17;;;;;;;21.45;4.72;;;9.90;98.70;;;;;;5053465;28;20256;-66
2022/03/18 05:51:44;;;;;;;9.80;4.65;;;9.90;98.60;;;;;;5053640;28;20236;-66
2022/03/18 05:54:11;;;;;;;17.02;3.88;;;9.90;98.60;;;;;;5053321;28;20315;-66
2022/03/18 05:56:54;;;;;;;11.00;3.72;;;9.90;98.50;;;;;;5053954;28;20229;-66
2022/03/18 05:59:23;;;;;;;8.27;3.92;;;9.90;98.40;;;;;;5053537;28;20243;-64
2022/03/18 06:01:51;;;;;;;9.95;4.78;;;9.90;98.40;;;;;;5053379;28;20239;-66
2022/03/18 06:04:18;;;;;;;11.10;4.13;;;9.80;98.20;;;;;;5053163;28;20220;-66
2022/03/18 06:06:47;;;;;;;10.50;3.97;;;9.80;98.30;;;;;;5053412;28;20709;-66
2022/03/18 06:11:59;;;;;;;11.80;4.35;;;9.70;98.30;;;;;;5053017;28;20568;-66
2022/03/18 06:14:27;;;;;;;12.48;4.68;;;9.60;98.40;;;;;;5053513;28;20227;-66
2022/03/18 06:16:57;;;;;;;7.72;3.50;;;9.60;98.30;;;;;;5053419;28;20319;-66
2022/03/18 06:19:26;;;;;;;7.78;3.75;;;9.60;98.40;;;;;;5053269;28;20248;-67
2022/03/18 06:21:53;;;;;;;9.35;3.60;;;9.60;98.50;;;;;;5053174;28;20229;-65
2022/03/18 06:24:21;;;;;;;9.63;3.70;;;9.60;98.40;;;;;;5052911;28;20244;-66
2022/03/18 06:26:48;;;;;;;9.68;3.97;;;9.60;98.30;;;;;;5053052;28;20228;-67
2022/03/18 06:29:15;;;;;;;9.13;3.83;;;9.60;98.30;;;;;;5052700;28;20231;-66
2022/03/18 06:31:42;;;;;;;5.72;3.83;;;9.50;98.20;;;;;;5053214;28;20564;-65
2022/03/18 06:34:12;;;;;;;8.77;3.70;;;9.50;98.40;;;;;;5052557;28;20229;-65
2022/03/18 06:36:39;;;;;;;9.57;3.65;;;9.50;98.40;;;;;;5052898;28;20225;-65
2022/03/18 06:39:07;;;;;;;6.63;2.85;;;9.40;98.40;;;;;;5052603;28;20229;-65
2022/03/18 06:41:34;;;;;;;6.93;3.30;;;9.50;98.40;;;;;;5052852;28;20223;-65
2022/03/18 06:44:01;;;;;;;10.00;4.28;;;9.40;98.40;;;;;;5052285;28;20236;-65
2022/03/18 06:46:28;;;;;;;7.88;3.25;;;9.40;98.50;;;;;;5052501;28;20293;-66
2022/03/18 06:48:55;;;;;;;13.98;4.20;;;9.40;98.40;;;;;;5052802;28;20225;-65
2022/03/18 06:51:23;;;;;;;8.85;3.05;;;9.40;98.60;;;;;;5052002;28;20244;-67
2022/03/18 06:53:50;;;;;;;11.07;3.60;;;9.40;98.50;;;;;;5052733;28;20240;-66
2022/03/18 06:56:17;;;;;;;9.57;3.65;;;9.40;98.40;;;;;;5052232;28;20225;-65
2022/03/18 06:58:44;;;;;;;11.55;3.78;;;9.40;98.30;;;;;;5052754;28;20229;-65
2022/03/18 07:01:11;;;;;;;12.50;5.00;;;9.30;98.20;;;;;;5052239;28;20233;-65
2022/03/18 07:03:38;;;;;;;13.73;3.67;;;9.30;98.20;;;;;;5052563;28;20212;-65
2022/03/18 07:06:06;;;;;;;10.57;4.25;;;9.30;98.20;;;;;;5052307;28;20563;-67
2022/03/18 07:08:34;;;;;;;13.48;3.53;;;9.30;98.40;;;;;;5052633;28;20305;-68
2022/03/18 07:11:01;;;;;;;15.02;4.28;;;9.30;98.40;;;;;;5052401;28;20228;-69
2022/03/18 07:13:28;;;;;;;6.22;2.95;;;9.20;98.50;;;;;;5052330;28;20221;-65
2022/03/18 07:15:55;;;;;;;8.13;3.60;;;9.20;98.50;;;;;;5052439;28;20221;-67
2022/03/18 07:18:21;;;;;;;9.93;3.30;;;9.20;98.40;;;;;;5052001;28;20249;-67
2022/03/18 07:20:48;;;;;;;5.10;3.80;;;9.20;98.40;;;;;;5052660;28;20245;-66
2022/03/18 07:23:16;;;;;;;12.13;4.32;;;9.30;98.40;;;;;;5051855;28;20239;-66
2022/03/18 07:25:47;;;;;;;17.55;6.70;;;9.30;98.30;;;;;;5052437;28;20229;-66
2022/03/18 07:28:15;;;;;;;14.23;4.05;;;9.40;98.40;;;;;;5052122;28;20221;-66
2022/03/18 07:30:44;;;;;;;8.27;3.13;;;9.40;98.30;;;;;;5052238;28;20228;-66
2022/03/18 07:33:12;;;;;;;12.55;4.28;;;9.40;98.30;;;;;;5051903;28;20278;-66
2022/03/18 07:35:40;;;;;;;8.07;3.70;;;9.40;98.20;;;;;;5052499;28;20229;-66
2022/03/18 07:38:09;;;;;;;8.75;3.90;;;9.50;98.20;;;;;;5051543;28;20221;-66
2022/03/18 07:40:36;;;;;;;9.88;3.42;;;9.40;98.30;;;;;;5052137;28;20225;-66
2022/03/18 07:43:05;;;;;;;6.90;3.08;;;9.50;98.20;;;;;;5052325;28;20740;-66
2022/03/18 07:45:33;;;;;;;9.80;3.85;;;9.50;97.90;;;;;;5052070;28;20244;-66
2022/03/18 07:48:01;;;;;;;11.18;4.85;;;9.60;98.00;;;;;;5052191;28;20299;-66
2022/03/18 07:50:30;;;;;;;8.80;3.70;;;9.60;97.90;;;;;;5051577;28;20611;-66
2022/03/18 07:52:59;;;;;;;14.57;3.75;;;9.60;97.80;;;;;;5052101;28;20590;-66
2022/03/18 07:55:28;;;;;;;10.85;3.28;;;9.70;97.70;;;;;;5053430;28;20221;-66
2022/03/18 07:57:56;;;;;;;19.30;4.82;;;9.70;97.70;;;;;;5056064;28;20239;-66
2022/03/18 08:00:25;;;;;;;10.23;5.30;;;9.70;97.60;;;;;;5055400;28;20231;-66
2022/03/18 08:02:53;;;;;;;12.15;4.85;;;9.70;97.60;;;;;;5055875;28;20690;-66
2022/03/18 08:05:21;;;;;;;11.00;3.40;;;9.80;97.60;;;;;;5055469;28;20542;-67
2022/03/18 08:07:48;;;;;;;9.05;3.85;;;9.80;97.50;;;;;;5055840;28;20228;-64
2022/03/18 08:10:17;;;;;;;11.30;3.97;;;9.80;97.30;;;;;;5055369;28;20695;-66
2022/03/18 08:12:46;;;;;;;7.63;3.13;;;9.90;97.20;;;;;;5055930;28;20232;-65
2022/03/18 08:15:14;;;;;;;11.38;3.30;;;9.90;97.10;;;;;;5055300;28;20221;-66
2022/03/18 08:17:44;;;;;;;7.93;3.58;;;10.00;96.60;;;;;;5055627;28;20217;-67
2022/03/18 08:20:13;;;;;;;8.77;3.30;;;10.00;96.50;;;;;;5055198;28;20225;-67
2022/03/18 08:22:41;;;;;;;13.95;3.65;;;10.10;96.50;;;;;;5055623;28;20225;-66
2022/03/18 08:25:09;;;;;;;10.20;3.45;;;10.20;96.20;;;;;;5055442;28;20316;-66
2022/03/18 08:27:37;;;;;;;7.05;3.00;;;10.20;96.00;;;;;;5055121;28;20231;-66
2022/03/18 08:30:07;;;;;;;9.27;4.75;;;10.20;96.00;;;;;;5055330;28;20737;-66
2022/03/18 08:32:34;;;;;;;9.70;3.40;;;10.30;96.10;;;;;;5055020;28;20739;-65
2022/03/18 08:35:03;;;;;;;17.13;6.45;;;10.30;96.00;;;;;;5054170;28;20303;-65
2022/03/18 08:40:14;;;;;;;11.77;3.40;;;10.30;95.80;;;;;;5065359;28;20253;-66
2022/03/18 08:42:41;;;;;;;12.05;3.63;;;10.40;95.90;;;;;;5075250;28;20614;-65
2022/03/18 08:45:10;;;;;;;13.00;4.03;;;10.50;95.90;;;;;;5059162;28;20232;-66
2022/03/18 08:47:37;;;;;;;14.80;4.45;;;10.50;95.70;;;;;;5054541;28;20274;-66
2022/03/18 08:50:07;;;;;;;12.60;4.13;;;10.60;95.70;;;;;;5054790;28;20225;-65
2022/03/18 08:52:34;;;;;;;13.93;4.22;;;10.60;95.60;;;;;;5061136;28;20236;-65
2022/03/18 08:55:00;;;;;;;14.45;5.60;;;10.70;95.60;;;;;;5074974;28;20247;-65
2022/03/18 08:57:28;;;;;;;12.50;5.40;;;10.70;95.50;;;;;;5074398;28;20682;-65
2022/03/18 08:59:57;;;;;;;13.25;4.90;;;10.80;95.10;;;;;;5074755;28;20228;-65
2022/03/18 09:02:23;;;;;;;11.52;4.45;;;10.90;95.20;;;;;;5074313;28;20299;-65
2022/03/18 09:04:52;;;;;;;13.63;5.10;;;10.90;95.20;;;;;;5074642;28;20234;-65
2022/03/18 09:07:20;;;;;;;12.25;5.03;;;11.00;95.20;;;;;;5073632;28;20235;-65
2022/03/18 09:09:47;;;;;;;15.77;4.97;;;11.00;95.10;;;;;;5066330;28;20225;-66
2022/03/18 09:12:17;;;;;;;9.68;4.30;;;11.10;94.90;;;;;;5054461;28;20225;-66
2022/03/18 09:14:45;;;;;;;18.88;5.10;;;11.20;94.90;;;;;;5061966;28;20961;-65
2022/03/18 09:17:12;;;;;;;11.43;4.72;;;11.20;94.70;;;;;;5073140;28;20951;-65
2022/03/18 09:19:39;;;;;;;12.65;7.47;;;11.30;94.70;;;;;;5072713;28;20232;-65
2022/03/18 09:22:06;;;;;;;10.23;5.95;;;11.40;94.60;;;;;;5073383;28;20297;-65
2022/03/18 09:24:35;;;;;;;13.88;6.97;;;11.40;94.50;;;;;;5073200;28;20232;-65
2022/03/18 09:27:03;;;;;;;11.63;6.55;;;11.40;94.40;;;;;;5074077;28;20670;-65
2022/03/18 09:29:30;;;;;;;14.75;6.43;;;11.50;94.40;;;;;;5073912;28;20690;-65
2022/03/18 09:31:57;;;;;;;10.05;6.13;;;11.40;94.30;;;;;;5074149;28;20229;-65
2022/03/18 09:34:25;;;;;;;10.20;4.75;;;11.50;94.40;;;;;;5073703;28;20220;-66
2022/03/18 09:36:53;;;;;;;15.40;7.35;;;11.50;94.40;;;;;;5074190;28;20281;-66
2022/03/18 09:39:20;;;;;;;15.05;6.95;;;11.60;94.40;;;;;;5074053;28;20710;-66
2022/03/18 09:41:49;;;;;;;10.23;5.60;;;11.60;94.30;;;;;;5073771;28;20235;-66
2022/03/18 09:44:16;;;;;;;13.02;6.40;;;11.60;94.30;;;;;;5074014;28;20224;-66
2022/03/18 09:46:46;;;;;;;15.07;6.45;;;11.70;94.20;;;;;;5073475;28;20243;-66
2022/03/18 09:49:14;;;;;;;10.63;5.80;;;11.70;94.00;;;;;;5073795;28;20231;-66
2022/03/18 09:51:42;;;;;;;16.48;6.18;;;11.70;94.00;;;;;;5073131;28;20223;-65
2022/03/18 09:54:10;;;;;;;14.30;6.90;;;11.70;94.10;;;;;;5073737;28;20757;-65
2022/03/18 09:56:40;;;;;;;17.00;8.13;;;11.70;94.20;;;;;;5073257;28;20235;-65
2022/03/18 09:59:09;;;;;;;14.88;7.53;;;11.80;94.30;;;;;;5073810;28;20220;-65
2022/03/18 10:01:36;;;;;;;13.55;7.78;;;11.80;94.30;;;;;;5073063;28;20228;-65
2022/03/18 10:04:05;;;;;;;14.75;7.95;;;11.90;94.00;;;;;;5073564;28;20220;-66
2022/03/18 10:06:32;;;;;;;12.13;6.95;;;11.90;94.00;;;;;;5073223;28;20587;-66
2022/03/18 10:08:59;;;;;;;12.90;7.85;;;12.00;94.00;;;;;;5073484;28;20236;-66
2022/03/18 10:11:30;;;;;;;16.55;6.40;;;12.00;93.90;;;;;;5072983;28;20301;-65
2022/03/18 10:14:00;;;;;;;10.85;6.20;;;12.00;93.40;;;;;;5073606;28;20220;-66
2022/03/18 10:16:37;;;;;;;7.38;5.68;;;12.10;93.50;;;;;;5072864;28;20216;-66
2022/03/18 10:19:06;;;;;;;10.05;6.63;;;12.10;93.40;;;;;;5072418;28;20615;-67
2022/03/18 10:21:33;;;;;;;12.02;7.50;;;12.20;93.50;;;;;;5072723;28;20221;-65
2022/03/18 10:24:06;;;;;;;9.77;6.20;;;12.20;93.40;;;;;;5073427;28;20224;-66
2022/03/18 10:26:35;;;;;;;19.05;7.68;;;12.30;93.40;;;;;;5072699;28;20224;-66
2022/03/18 10:29:03;;;;;;;15.88;7.10;;;12.30;93.30;;;;;;5072958;28;20224;-65
2022/03/18 10:31:30;;;;;;;15.80;7.18;;;12.30;93.10;;;;;;5072770;28;20229;-66
2022/03/18 10:39:32;;;;;;;9.77;6.38;;;12.50;92.60;;;;;;5072662;28;20226;-65
2022/03/18 10:42:01;;;;;;;12.45;7.10;;;12.50;92.40;;;;;;5072894;28;20224;-65
2022/03/18 10:44:28;;;;;;;10.60;5.78;;;12.50;91.80;;;;;;5072730;28;20212;-65
2022/03/18 10:46:57;;;;;;;11.50;6.95;;;12.50;91.60;;;;;;5072907;28;20213;-65
2022/03/18 10:49:25;;;;;;;8.27;6.07;;;12.60;91.50;;;;;;5072539;28;20311;-66
2022/03/18 10:51:53;;;;;;;15.68;7.47;;;12.60;91.50;;;;;;5072402;28;20305;-65
2022/03/18 10:54:25;;;;;;;14.20;5.55;;;12.70;91.50;;;;;;5072599;28;20220;-66
2022/03/18 10:56:55;;;;;;;8.63;5.50;;;12.70;91.20;;;;;;5072326;28;20666;-65
2022/03/18 10:59:24;;;;;;;10.32;5.88;;;12.80;90.90;;;;;;5072844;28;20220;-66
2022/03/18 11:01:52;;;;;;;9.02;5.50;;;12.80;90.80;;;;;;5072265;28;20266;-66
2022/03/18 11:04:20;;;;;;;12.20;6.63;;;12.80;90.70;;;;;;5072739;28;20220;-66
2022/03/18 11:11:06;;;;;;;10.38;5.78;;;13.00;90.30;;;;;;5071986;28;20227;-65
2022/03/18 11:12:23;;;;;;;9.98;5.80;;;13.00;90.40;;;;;;5072515;28;20694;-65
2022/03/18 11:14:52;;;;;;;9.65;5.80;;;13.10;90.60;;;;;;5072345;28;20308;-65
2022/03/18 11:17:19;;;;;;;9.05;4.60;;;13.10;90.70;;;;;;5072680;28;20761;-65
2022/03/18 11:19:47;;;;;;;11.38;6.40;;;13.10;90.60;;;;;;5072366;28;20228;-65
2022/03/18 11:22:16;;;;;;;10.48;6.43;;;13.20;90.60;;;;;;5072470;28;20233;-65
2022/03/18 11:24:43;;;;;;;15.27;6.40;;;13.20;90.40;;;;;;5072160;28;20262;-65
2022/03/18 11:27:12;;;;;;;14.95;7.30;;;13.20;90.40;;;;;;5072561;28;20304;-65
2022/03/18 11:29:40;;;;;;;11.52;7.15;;;13.30;90.20;;;;;;5072621;28;20228;-65
2022/03/18 11:32:20;;;;;;;10.45;6.70;;;13.30;89.60;;;;;;5076587;28;20235;-65
2022/03/18 11:34:50;;;;;;;10.95;5.30;;;13.40;88.70;;;;;;5075822;28;20333;-65
2022/03/18 11:37:19;;;;;;;9.48;5.03;;;13.40;88.30;;;;;;5076578;28;20560;-65
2022/03/18 11:39:47;;;;;;;11.65;5.63;;;13.50;88.00;;;;;;5075984;28;20565;-65
2022/03/18 11:42:19;;;;;;;11.90;6.15;;;13.50;86.40;;;;;;5076234;28;20407;-65
2022/03/18 11:44:52;;;;;;;10.35;5.82;;;13.50;86.00;;;;;;5076021;28;20705;-65
2022/03/18 11:47:45;;;;;;;9.65;5.18;;;13.50;86.00;;;;;;5061902;28;20807;-65
2022/03/18 11:50:50;;;;;;;14.93;5.75;;;13.50;85.40;;;;;;5054103;28;20251;-66
2022/03/18 11:53:51;;;;;;;6.35;4.00;;;13.60;85.50;;;;;;5036029;28;20308;-66
2022/03/18 11:56:20;;;;;;;8.73;4.55;;;13.60;85.00;;;;;;5036574;28;20480;-67
2022/03/18 11:58:47;;;;;;;10.52;4.88;;;13.70;84.10;;;;;;5050567;28;20235;-66
2022/03/18 12:01:39;;;;;;;10.65;4.00;;;13.70;83.30;;;;;;5055373;28;20225;-66
2022/03/18 12:04:07;;;;;;;6.80;3.50;;;13.80;83.10;;;;;;5055485;28;20232;-65
2022/03/18 12:06:35;;;;;;;6.18;3.22;;;13.80;82.80;;;;;;5055473;28;20247;-65
2022/03/18 12:09:03;;;;;;;6.40;4.35;;;13.80;82.40;;;;;;5054898;28;20757;-65
2022/03/18 12:11:37;;;;;;;7.20;5.70;;;13.90;82.10;;;;;;5055820;28;20328;-66
2022/03/18 12:14:06;;;;;;;7.70;5.40;;;13.90;80.90;;;;;;5055136;28;20228;-66
2022/03/18 12:16:33;;;;;;;13.82;6.22;;;14.00;79.20;;;;;;5055264;28;20235;-66
2022/03/18 12:19:01;;;;;;;8.65;5.47;;;14.00;79.10;;;;;;5055211;28;20224;-65
2022/03/18 12:21:42;;;;;;;5.43;3.88;;;14.00;78.20;;;;;;5054401;28;20707;-66
2022/03/18 12:24:12;;;;;;;12.73;4.70;;;14.10;77.90;;;;;;5054761;28;20323;-65
2022/03/18 12:26:40;;;;;;;6.47;3.38;;;14.10;77.60;;;;;;5055519;28;20236;-66
2022/03/18 12:29:09;;;;;;;14.23;7.30;;;14.10;77.20;;;;;;5054907;28;20227;-66
2022/03/18 12:31:36;;;;;;;9.15;4.90;;;14.20;77.10;;;;;;5054860;28;20468;-67
2022/03/18 12:34:08;;;;;;;12.63;5.65;;;14.20;76.10;;;;;;5054731;28;20308;-67
2022/03/18 12:36:37;;;;;;;12.15;5.38;;;14.30;75.50;;;;;;5055078;28;20217;-66
2022/03/18 12:39:10;;;;;;;6.73;3.37;;;14.20;73.80;;;;;;5057191;28;20266;-65
2022/03/18 12:41:38;;;;;;;7.30;3.88;;;14.30;74.10;;;;;;5072101;28;20475;-66
2022/03/18 12:44:06;;;;;;;6.50;4.07;;;14.30;73.80;;;;;;5073096;28;20224;-67
2022/03/18 12:46:35;;;;;;;9.93;3.97;;;14.30;72.60;;;;;;5055908;28;20232;-65
2022/03/18 12:49:07;;;;;;;9.70;4.47;;;14.30;73.10;;;;;;5039285;28;20331;-66
2022/03/18 12:51:37;;;;;;;9.00;4.20;;;14.40;73.00;;;;;;5052556;28;20233;-65
2022/03/18 12:54:04;;;;;;;8.50;4.07;;;14.50;72.20;;;;;;5052754;28;20521;-66
2022/03/18 12:56:33;;;;;;;7.00;3.50;;;14.50;71.70;;;;;;5054471;28;20346;-66
2022/03/18 12:59:00;;;;;;;4.47;2.57;;;14.60;70.50;;;;;;5046533;28;20468;-66
2022/03/18 13:01:28;;;;;;;4.63;2.83;;;14.60;69.80;;;;;;5053986;28;20553;-66
2022/03/18 13:03:58;;;;;;;6.20;2.87;;;14.60;70.00;;;;;;5050316;28;20220;-66
2022/03/18 13:06:27;;;;;;;10.03;4.50;;;14.60;69.90;;;;;;5054074;28;20549;-66
2022/03/18 13:09:12;;;;;;;5.13;2.90;;;14.70;69.80;;;;;;5054483;28;20989;-66
2022/03/18 13:11:47;;;;;;;7.50;3.17;;;14.70;69.10;;;;;;5054831;28;20468;-66